createdAt,value
2019-04-29T00:00:07.699Z,8.30
2019-04-29T00:05:10.186Z,8.83
2019-04-29T00:10:15.471Z,8.60
2019-04-29T00:15:33.573Z,6.97
2019-04-29T00:20:46.438Z,6.83
2019-04-29T00:25:48.738Z,8.87
2019-04-29T00:30:50.805Z,9.00
2019-04-29T00:35:52.991Z,9.30
2019-04-29T00:41:13.077Z,9.60
2019-04-29T00:46:15.234Z,6.90
2019-04-29T00:51:17.315Z,10.37
2019-04-29T00:56:19.985Z,14.17
2019-04-29T01:01:24.421Z,8.67
2019-04-29T01:06:26.463Z,11.63
2019-04-29T01:11:28.510Z,9.90
2019-04-29T01:16:30.541Z,11.30
2019-04-29T01:21:32.627Z,12.30
2019-04-29T01:27:12.423Z,14.00
2019-04-29T01:32:14.453Z,10.17
2019-04-29T01:37:16.549Z,10.73
2019-04-29T01:42:31.174Z,13.10
2019-04-29T01:47:33.215Z,12.87
2019-04-29T01:52:35.273Z,12.07
2019-04-29T01:57:37.347Z,12.17
2019-04-29T02:02:39.460Z,11.63
2019-04-29T02:07:41.517Z,10.50
2019-04-29T02:12:43.706Z,8.53
2019-04-29T02:17:45.733Z,10.10
2019-04-29T02:23:07.396Z,13.67
2019-04-29T02:28:14.877Z,11.70
2019-04-29T02:33:16.924Z,12.83
2019-04-29T02:38:30.111Z,8.70
2019-04-29T02:43:34.096Z,10.20
2019-04-29T02:48:36.130Z,11.30
2019-04-29T02:53:38.212Z,11.97
2019-04-29T02:58:46.803Z,9.10
2019-04-29T03:03:57.782Z,10.43
2019-04-29T03:08:59.824Z,9.33
2019-04-29T03:14:01.982Z,9.90
2019-04-29T03:19:08.865Z,10.90
2019-04-29T03:24:10.953Z,8.23
2019-04-29T03:29:21.948Z,11.37
2019-04-29T03:34:24.035Z,12.57
2019-04-29T03:39:26.082Z,8.73
2019-04-29T03:44:28.167Z,11.20
2019-04-29T03:49:30.247Z,12.67
2019-04-29T03:54:32.452Z,9.67
2019-04-29T03:59:34.638Z,9.63
2019-04-29T04:04:57.508Z,12.43
2019-04-29T04:09:59.579Z,11.83
2019-04-29T04:15:01.629Z,12.70
2019-04-29T04:20:04.512Z,11.43
2019-04-29T04:25:06.580Z,13.80
2019-04-29T04:30:08.926Z,12.27
2019-04-29T04:35:11.669Z,13.00
2019-04-29T04:40:17.010Z,12.97
2019-04-29T04:45:19.190Z,13.40
2019-04-29T04:50:21.259Z,12.17
2019-04-29T04:55:26.529Z,15.50
2019-04-29T05:00:30.492Z,15.20
2019-04-29T05:05:32.561Z,16.83
2019-04-29T05:10:34.618Z,12.53
2019-04-29T05:15:36.687Z,13.57
2019-04-29T05:20:38.792Z,15.47
2019-04-29T05:25:40.867Z,11.30
2019-04-29T05:30:42.888Z,12.93
2019-04-29T05:36:01.904Z,12.37
2019-04-29T05:41:03.396Z,15.13
2019-04-29T05:46:31.075Z,17.87
2019-04-29T05:51:42.999Z,11.97
2019-04-29T05:56:45.027Z,11.53
2019-04-29T06:01:48.905Z,11.43
2019-04-29T06:06:51.171Z,12.33
2019-04-29T06:11:53.254Z,13.13
2019-04-29T06:16:57.581Z,9.97
2019-04-29T06:21:59.335Z,8.47
2019-04-29T06:27:01.563Z,10.53
2019-04-29T06:32:03.615Z,7.87
2019-04-29T06:37:05.828Z,8.00
2019-04-29T06:42:08.015Z,8.20
2019-04-29T06:47:10.169Z,9.20
2019-04-29T06:52:12.274Z,7.20
2019-04-29T06:57:14.330Z,7.67
2019-04-29T07:02:16.397Z,7.07
2019-04-29T07:07:18.482Z,6.97
2019-04-29T07:12:20.573Z,6.43
2019-04-29T07:17:22.645Z,9.30
2019-04-29T07:22:25.828Z,5.97
2019-04-29T07:27:28.754Z,10.70
2019-04-29T07:32:32.452Z,6.90
2019-04-29T07:37:35.875Z,7.20
2019-04-29T07:42:38.076Z,8.70
2019-04-29T07:47:41.028Z,8.70
2019-04-29T07:52:45.599Z,8.43
2019-04-29T07:57:47.753Z,9.30
2019-04-29T08:02:51.125Z,8.57
2019-04-29T08:07:53.316Z,10.77
2019-04-29T08:12:57.890Z,7.13
2019-04-29T08:18:06.691Z,8.07
2019-04-29T08:23:04.165Z,8.23
2019-04-29T08:28:06.346Z,10.60
2019-04-29T08:33:11.983Z,8.50
2019-04-29T08:38:12.445Z,10.20
2019-04-29T08:43:34.187Z,12.43
2019-04-29T08:48:36.345Z,10.90
2019-04-29T08:53:38.415Z,8.47
2019-04-29T08:58:44.285Z,8.73
2019-04-29T09:03:44.519Z,12.23
2019-04-29T09:08:54.485Z,8.33
2019-04-29T09:13:50.631Z,11.27
2019-04-29T09:18:52.693Z,11.97
2019-04-29T09:23:54.774Z,9.90
2019-04-29T09:28:59.688Z,13.37
2019-04-29T09:34:06.696Z,8.83
2019-04-29T09:39:05.140Z,13.43
2019-04-29T09:44:35.232Z,9.13
2019-04-29T09:49:36.977Z,10.80
2019-04-29T09:54:39.041Z,9.53
2019-04-29T09:59:47.167Z,11.63
2019-04-29T10:05:11.678Z,10.03
2019-04-29T10:10:13.836Z,10.17
2019-04-29T10:15:18.241Z,7.80
2019-04-29T10:20:25.016Z,10.77
2019-04-29T10:25:27.075Z,11.47
2019-04-29T10:30:32.392Z,10.37
2019-04-29T10:35:34.780Z,9.70
2019-04-29T10:41:00.572Z,9.50
2019-04-29T10:46:24.803Z,9.40
2019-04-29T10:51:27.463Z,11.63
2019-04-29T10:56:30.867Z,9.77
2019-04-29T11:02:34.300Z,8.37
2019-04-29T11:07:38.721Z,8.23
2019-04-29T11:12:40.785Z,11.40
2019-04-29T11:17:44.418Z,8.30
2019-04-29T11:22:53.380Z,5.83
2019-04-29T11:27:56.386Z,6.00
2019-04-29T11:33:11.261Z,7.00
2019-04-29T11:38:15.262Z,5.67
2019-04-29T11:43:18.157Z,5.40
2019-04-29T11:48:20.267Z,9.10
2019-04-29T11:53:22.450Z,8.93
2019-04-29T11:58:40.938Z,11.13
2019-04-29T12:03:43.977Z,7.10
2019-04-29T12:08:48.183Z,7.23
2019-04-29T12:14:12.253Z,7.30
2019-04-29T12:19:22.478Z,7.03
2019-04-29T12:24:24.714Z,6.47
2019-04-29T12:29:26.784Z,7.33
2019-04-29T12:34:48.292Z,10.07
2019-04-29T12:40:09.849Z,6.43
2019-04-29T12:45:22.928Z,7.47
2019-04-29T12:50:25.038Z,7.13
2019-04-29T12:55:44.196Z,8.90
2019-04-29T13:00:47.246Z,8.70
2019-04-29T13:06:04.124Z,8.50
2019-04-29T13:11:06.646Z,9.07
2019-04-29T13:16:22.043Z,10.73
2019-04-29T13:21:24.350Z,10.07
2019-04-29T13:26:28.758Z,11.30
2019-04-29T13:31:38.075Z,10.80
2019-04-29T13:36:34.527Z,14.40
2019-04-29T13:41:55.572Z,14.33
2019-04-29T13:46:59.464Z,15.87
2019-04-29T13:52:01.719Z,15.53
2019-04-29T13:57:08.891Z,21.90
2019-04-29T14:07:39.394Z,17.73
2019-04-29T14:12:48.580Z,17.17
2019-04-29T14:17:45.273Z,17.70
2019-04-29T14:22:48.853Z,17.57
2019-04-29T14:27:50.947Z,18.33
2019-04-29T14:32:57.017Z,21.67
2019-04-29T14:38:04.266Z,17.70
2019-04-29T14:43:28.721Z,20.50
2019-04-29T14:48:42.255Z,20.70
2019-04-29T14:53:37.790Z,22.90
2019-04-29T14:58:39.997Z,25.50
2019-04-29T15:03:56.631Z,28.00
2019-04-29T15:08:58.862Z,24.70
2019-04-29T15:14:08.741Z,23.40
2019-04-29T15:19:28.776Z,23.67
2019-04-29T15:24:32.381Z,26.00
2019-04-29T15:29:34.835Z,30.33
2019-04-29T15:34:40.036Z,25.87
2019-04-29T15:39:45.843Z,26.33
2019-04-29T15:44:44.903Z,24.43
2019-04-29T15:49:46.970Z,27.10
2019-04-29T15:54:51.022Z,23.37
2019-04-29T15:59:58.661Z,30.10
2019-04-29T16:05:04.693Z,26.73
2019-04-29T16:10:30.585Z,23.13
2019-04-29T16:15:32.677Z,26.13
2019-04-29T16:20:34.750Z,23.90
2019-04-29T16:25:40.802Z,28.67
2019-04-29T16:30:42.744Z,26.07
2019-04-29T16:35:44.865Z,28.70
2019-04-29T16:40:57.217Z,29.50
2019-04-29T16:46:23.460Z,28.50
2019-04-29T16:51:22.035Z,26.37
2019-04-29T16:56:24.143Z,24.50
2019-04-29T17:01:26.225Z,23.03
2019-04-29T17:06:28.298Z,26.67
2019-04-29T17:11:31.751Z,23.50
2019-04-29T17:16:33.900Z,23.00
2019-04-29T17:21:35.958Z,22.40
2019-04-29T17:26:45.482Z,20.43
2019-04-29T17:32:10.852Z,27.53
2019-04-29T17:37:13.599Z,28.97
2019-04-29T17:42:15.717Z,21.63
2019-04-29T17:47:37.876Z,26.47
2019-04-29T17:52:39.882Z,26.97
2019-04-29T17:57:56.412Z,30.20
2019-04-29T18:03:16.763Z,25.33
2019-04-29T18:08:44.862Z,30.20
2019-04-29T18:13:47.131Z,33.80
2019-04-29T18:19:05.695Z,31.30
2019-04-29T18:24:29.450Z,34.43
2019-04-29T18:29:29.845Z,30.47
2019-04-29T18:34:33.558Z,29.37
2019-04-29T18:39:36.319Z,32.30
2019-04-29T18:44:40.531Z,30.60
2019-04-29T18:49:42.409Z,27.10
2019-04-29T18:54:44.991Z,32.67
2019-04-29T18:59:47.307Z,30.37
2019-04-29T19:05:00.679Z,30.87
2019-04-29T19:10:06.880Z,28.70
2019-04-29T19:15:11.610Z,30.60
2019-04-29T19:20:16.655Z,33.17
2019-04-29T19:25:16.938Z,35.57
2019-04-29T19:30:21.143Z,30.93
2019-04-29T19:35:25.154Z,29.37
2019-04-29T19:40:30.114Z,31.23
2019-04-29T19:45:31.030Z,30.73
2019-04-29T19:50:33.079Z,29.30
2019-04-29T19:55:41.884Z,30.57
2019-04-29T20:00:39.618Z,30.70
2019-04-29T20:05:49.488Z,38.90
2019-04-29T20:10:52.690Z,34.33
2019-04-29T20:16:12.610Z,38.50
2019-04-29T20:21:24.971Z,28.73
2019-04-29T20:26:28.663Z,36.73
2019-04-29T20:31:25.834Z,31.07
2019-04-29T20:36:38.545Z,29.80
2019-04-29T20:41:41.104Z,35.73
2019-04-29T20:46:44.939Z,32.73
2019-04-29T20:51:51.217Z,30.07
2019-04-29T20:56:47.294Z,34.40
2019-04-29T21:01:56.745Z,31.33
2019-04-29T21:07:02.101Z,41.70
2019-04-29T21:12:13.411Z,31.57
2019-04-29T21:17:28.215Z,31.70
2019-04-29T21:22:23.460Z,30.77
2019-04-29T21:27:24.162Z,36.40
2019-04-29T21:32:30.582Z,42.47
2019-04-29T21:37:39.956Z,31.27
2019-04-29T21:42:47.129Z,29.53
2019-04-29T21:47:53.345Z,33.40
2019-04-29T21:52:55.409Z,37.37
2019-04-29T21:57:58.869Z,42.30
2019-04-29T22:03:00.797Z,27.33
2019-04-29T22:08:03.091Z,29.27
2019-04-29T22:13:05.343Z,22.13
2019-04-29T22:18:14.068Z,20.73
2019-04-29T22:23:13.067Z,19.93
2019-04-29T22:28:19.543Z,15.90
2019-04-29T22:33:19.420Z,17.10
2019-04-29T22:38:21.580Z,10.50
2019-04-29T22:43:33.580Z,13.30
2019-04-29T22:48:35.893Z,8.47
2019-04-29T22:53:40.016Z,11.60
2019-04-29T22:58:43.886Z,8.33
2019-04-29T23:03:47.147Z,11.40
2019-04-29T23:08:49.270Z,8.53
2019-04-29T23:13:51.418Z,7.63
2019-04-29T23:18:55.275Z,8.67
2019-04-29T23:24:13.260Z,11.83
2019-04-29T23:29:13.145Z,13.10
2019-04-29T23:34:15.520Z,8.40
2019-04-29T23:39:17.903Z,8.57
2019-04-29T23:44:19.951Z,9.87
2019-04-29T23:49:22.071Z,7.87
2019-04-29T23:54:25.192Z,9.67
2019-04-29T23:59:29.386Z,7.63
